KLAA/LAA METAR and TAF weather

Enter ICAO airport designator
Station Type Date Time Source
KLAA METAR 2018/12/12 11:53 UTC NOAA

KLAA 121153Z AUTO 30003KT 10SM CLR M09/M13 A2985 RMK AO2 SLP128 60000 T10941128 11017 21106 56020


Station Type Date Time Source
KLAA Decoded METAR 2018/12/12 11:53 UTC NOAA

LAMAR MUNICIPAL AIRPORT, CO, United States (KLAA) 38-04N 102-41W 1119M
Dec 12, 2018 - 06:53 AM EST / 2018.12.12 1153 UTC
Wind: from the WNW (300 degrees) at 3 MPH (3 KT):0
Visibility: 10 mile(s):0
Sky conditions: clear
Temperature: 15.1 F (-9.4 C)
Dew Point: 9.0 F (-12.8 C)
Relative Humidity: 76%
Pressure (altimeter): 29.85 in. Hg (1010 hPa)
Pressure tendency: 0.06 inches (2.0 hPa) lower than three hours ago
ob: KLAA 121153Z AUTO 30003KT 10SM CLR M09/M13 A2985 RMK AO2 SLP128 60000 T10941128 11017 21106 56020
cycle: 12

Station Type Date Time Source
KLAA TAF UTC NOAA

Error!


Example: see airport list